AOJ74J LXGB-LESU
Flight info
| Callsign | AOJ74J |
|---|---|
| Flight time | 1h 8m |
| Altitude | 38000 |
| Route | PIMOS M985 POBOS DCT SAURA DCT REBUL |
| Aircraft | C750/M-SBDE3FGHRWXY/S |
Departure
| Time | 2026-05-07 09:08 |
|---|---|
| Airport | Gibraltar Airport (LXGB) |
Arrival
| Time | 2026-05-07 10:16 |
|---|---|
| Airport | Pirineus - la Seu d'Urgel Airport (LESU) |
| Time | Latitude | Longitude | Altitude | Speed | Heading |
|---|---|---|---|---|---|
| 2026-05-07 09:00 | 36.14975 | -5.34787 | 15 ft | 0 kts | 111° |
| 2026-05-07 09:04 | 36.14971 | -5.34774 | 15 ft | 3 kts | 111° |
| 2026-05-07 09:04 | 36.14969 | -5.34725 | 15 ft | 8 kts | 73° |
| 2026-05-07 09:04 | 36.15003 | -5.34671 | 15 ft | 8 kts | 41° |
| 2026-05-07 09:04 | 36.15048 | -5.34638 | 14 ft | 7 kts | 5° |
| 2026-05-07 09:05 | 36.15102 | -5.34634 | 13 ft | 8 kts | 15° |
| 2026-05-07 09:05 | 36.15132 | -5.34564 | 13 ft | 16 kts | 86° |
| 2026-05-07 09:05 | 36.15137 | -5.34419 | 12 ft | 17 kts | 87° |
| 2026-05-07 09:05 | 36.15142 | -5.34276 | 12 ft | 16 kts | 87° |
| 2026-05-07 09:06 | 36.15145 | -5.34172 | 12 ft | 11 kts | 88° |
| 2026-05-07 09:06 | 36.15167 | -5.34093 | 12 ft | 9 kts | 59° |
| 2026-05-07 09:06 | 36.15174 | -5.34026 | 12 ft | 7 kts | 115° |
| 2026-05-07 09:06 | 36.15151 | -5.34022 | 12 ft | 0 kts | 254° |
| 2026-05-07 09:07 | 36.15151 | -5.34030 | 12 ft | 0 kts | 267° |
| 2026-05-07 09:07 | 36.15151 | -5.34033 | 12 ft | 8 kts | 267° |
| 2026-05-07 09:07 | 36.15130 | -5.34612 | 14 ft | 120 kts | 267° |
| 2026-05-07 09:07 | 36.15095 | -5.35769 | 447 ft | 129 kts | 268° |
| 2026-05-07 09:08 | 36.15082 | -5.36830 | 1330 ft | 122 kts | 267° |
| 2026-05-07 09:08 | 36.15444 | -5.37882 | 1651 ft | 161 kts | 317° |
| 2026-05-07 09:08 | 36.16631 | -5.38092 | 1993 ft | 191 kts | 18° |
| 2026-05-07 09:08 | 36.17526 | -5.36960 | 2830 ft | 187 kts | 60° |
| 2026-05-07 09:09 | 36.17874 | -5.35330 | 3336 ft | 211 kts | 94° |
| 2026-05-07 09:09 | 36.17754 | -5.33432 | 4012 ft | 232 kts | 97° |
| 2026-05-07 09:09 | 36.17638 | -5.31354 | 4731 ft | 252 kts | 96° |
| 2026-05-07 09:09 | 36.17511 | -5.29097 | 5381 ft | 272 kts | 97° |
| 2026-05-07 09:10 | 36.17369 | -5.26757 | 6478 ft | 271 kts | 97° |
| 2026-05-07 09:10 | 36.17224 | -5.24412 | 7464 ft | 278 kts | 97° |
| 2026-05-07 09:10 | 36.17075 | -5.21997 | 8492 ft | 284 kts | 97° |
| 2026-05-07 09:10 | 36.16925 | -5.19533 | 9511 ft | 291 kts | 96° |
| 2026-05-07 09:11 | 36.16769 | -5.17006 | 10299 ft | 301 kts | 96° |
| 2026-05-07 09:11 | 36.16601 | -5.14308 | 10559 ft | 328 kts | 96° |
| 2026-05-07 09:11 | 36.16421 | -5.11413 | 10675 ft | 355 kts | 96° |
| 2026-05-07 09:11 | 36.16230 | -5.08285 | 11339 ft | 361 kts | 96° |
| 2026-05-07 09:12 | 36.16041 | -5.05218 | 12095 ft | 365 kts | 96° |
| 2026-05-07 09:12 | 36.15839 | -5.02026 | 12814 ft | 370 kts | 96° |
| 2026-05-07 09:12 | 36.15637 | -4.98833 | 13545 ft | 374 kts | 96° |
| 2026-05-07 09:12 | 36.15437 | -4.95647 | 14181 ft | 379 kts | 96° |
| 2026-05-07 09:13 | 36.15567 | -4.92375 | 14666 ft | 387 kts | 78° |
| 2026-05-07 09:13 | 36.16598 | -4.89288 | 15276 ft | 392 kts | 59° |
| 2026-05-07 09:13 | 36.18422 | -4.86769 | 15849 ft | 397 kts | 38° |
| 2026-05-07 09:13 | 36.20711 | -4.84850 | 16470 ft | 400 kts | 31° |
| 2026-05-07 09:14 | 36.23094 | -4.83033 | 17090 ft | 405 kts | 29° |
| 2026-05-07 09:14 | 36.25513 | -4.81186 | 17721 ft | 412 kts | 30° |
| 2026-05-07 09:14 | 36.27944 | -4.79260 | 18350 ft | 418 kts | 30° |
| 2026-05-07 09:14 | 36.30402 | -4.77302 | 18969 ft | 422 kts | 30° |
| 2026-05-07 09:15 | 36.32897 | -4.75353 | 19628 ft | 426 kts | 29° |
| 2026-05-07 09:15 | 36.35420 | -4.73389 | 20281 ft | 430 kts | 29° |
| 2026-05-07 09:15 | 36.37960 | -4.71390 | 20924 ft | 435 kts | 29° |
| 2026-05-07 09:15 | 36.40522 | -4.69363 | 21560 ft | 439 kts | 29° |
| 2026-05-07 09:16 | 36.43112 | -4.67324 | 22251 ft | 443 kts | 29° |
| 2026-05-07 09:16 | 36.45726 | -4.65270 | 22874 ft | 447 kts | 28° |
| 2026-05-07 09:16 | 36.48370 | -4.63185 | 23494 ft | 452 kts | 28° |
| 2026-05-07 09:16 | 36.51036 | -4.61077 | 24025 ft | 455 kts | 28° |
| 2026-05-07 09:17 | 36.53714 | -4.58960 | 24607 ft | 457 kts | 28° |
| 2026-05-07 09:17 | 36.56404 | -4.56835 | 25136 ft | 460 kts | 28° |
| 2026-05-07 09:17 | 36.59128 | -4.54683 | 25512 ft | 467 kts | 29° |
| 2026-05-07 09:17 | 36.61841 | -4.52532 | 26070 ft | 469 kts | 29° |
| 2026-05-07 09:18 | 36.64600 | -4.50341 | 26615 ft | 472 kts | 29° |
| 2026-05-07 09:18 | 36.67376 | -4.48139 | 27197 ft | 475 kts | 29° |
| 2026-05-07 09:18 | 36.70181 | -4.45916 | 27662 ft | 480 kts | 29° |
| 2026-05-07 09:18 | 36.73005 | -4.43671 | 28163 ft | 483 kts | 29° |
| 2026-05-07 09:19 | 36.75848 | -4.41407 | 28718 ft | 486 kts | 29° |
| 2026-05-07 09:19 | 36.78708 | -4.39129 | 29253 ft | 490 kts | 29° |
| 2026-05-07 09:19 | 36.81510 | -4.36670 | 29694 ft | 498 kts | 36° |
| 2026-05-07 09:19 | 36.84035 | -4.33679 | 30180 ft | 503 kts | 43° |
| 2026-05-07 09:20 | 36.86491 | -4.30549 | 30590 ft | 506 kts | 43° |
| 2026-05-07 09:20 | 36.88969 | -4.27413 | 31032 ft | 508 kts | 42° |
| 2026-05-07 09:20 | 36.91451 | -4.24281 | 31665 ft | 506 kts | 42° |
| 2026-05-07 09:20 | 36.93924 | -4.21144 | 32189 ft | 508 kts | 43° |
| 2026-05-07 09:21 | 36.96401 | -4.17986 | 32751 ft | 508 kts | 43° |
| 2026-05-07 09:21 | 36.98878 | -4.14831 | 33334 ft | 508 kts | 43° |
| 2026-05-07 09:21 | 37.01354 | -4.11687 | 33931 ft | 507 kts | 42° |
| 2026-05-07 09:21 | 37.03827 | -4.08543 | 34477 ft | 505 kts | 42° |
| 2026-05-07 09:22 | 37.06282 | -4.05405 | 35029 ft | 504 kts | 42° |
| 2026-05-07 09:22 | 37.08730 | -4.02274 | 35617 ft | 502 kts | 42° |
| 2026-05-07 09:22 | 37.11166 | -3.99163 | 36235 ft | 499 kts | 42° |
| 2026-05-07 09:22 | 37.13594 | -3.96061 | 36855 ft | 497 kts | 42° |
| 2026-05-07 09:23 | 37.16005 | -3.92974 | 37507 ft | 494 kts | 42° |
| 2026-05-07 09:23 | 37.18402 | -3.89899 | 38199 ft | 492 kts | 42° |
| 2026-05-07 09:23 | 37.20785 | -3.86841 | 38824 ft | 489 kts | 42° |
| 2026-05-07 09:23 | 37.23162 | -3.83791 | 39270 ft | 489 kts | 42° |
| 2026-05-07 09:24 | 37.25541 | -3.80735 | 39646 ft | 491 kts | 43° |
| 2026-05-07 09:24 | 37.27934 | -3.77656 | 39898 ft | 494 kts | 43° |
| 2026-05-07 09:24 | 37.30358 | -3.74535 | 39936 ft | 505 kts | 43° |
| 2026-05-07 09:24 | 37.32836 | -3.71342 | 39937 ft | 516 kts | 43° |
| 2026-05-07 09:25 | 37.37943 | -3.64746 | 39960 ft | 536 kts | 43° |
| 2026-05-07 09:25 | 37.43220 | -3.57920 | 39968 ft | 548 kts | 43° |
| 2026-05-07 09:26 | 37.48531 | -3.51031 | 39955 ft | 549 kts | 43° |
| 2026-05-07 09:26 | 37.53852 | -3.44116 | 39959 ft | 550 kts | 44° |
| 2026-05-07 09:27 | 37.59144 | -3.37224 | 39948 ft | 551 kts | 44° |
| 2026-05-07 09:28 | 37.67131 | -3.26791 | 39978 ft | 551 kts | 44° |
| 2026-05-07 09:28 | 37.72438 | -3.19841 | 39958 ft | 549 kts | 44° |
| 2026-05-07 09:29 | 37.77737 | -3.12887 | 39958 ft | 549 kts | 44° |
| 2026-05-07 09:29 | 37.83035 | -3.05918 | 39957 ft | 549 kts | 44° |
| 2026-05-07 09:30 | 37.88332 | -2.98936 | 39952 ft | 550 kts | 45° |
| 2026-05-07 09:30 | 37.93623 | -2.91946 | 39966 ft | 550 kts | 45° |
| 2026-05-07 09:31 | 37.98905 | -2.84950 | 39970 ft | 549 kts | 45° |
| 2026-05-07 09:31 | 38.04186 | -2.77943 | 39972 ft | 549 kts | 45° |
| 2026-05-07 09:32 | 38.09461 | -2.70926 | 39975 ft | 549 kts | 45° |
| 2026-05-07 09:32 | 38.14736 | -2.63895 | 39962 ft | 551 kts | 45° |
| 2026-05-07 09:33 | 38.20010 | -2.56848 | 39975 ft | 549 kts | 46° |
| 2026-05-07 09:33 | 38.25238 | -2.49848 | 39976 ft | 550 kts | 46° |
| 2026-05-07 09:34 | 38.30501 | -2.42785 | 39977 ft | 550 kts | 46° |
| 2026-05-07 09:34 | 38.35747 | -2.35715 | 39965 ft | 549 kts | 47° |
| 2026-05-07 09:35 | 38.40530 | -2.28118 | 39965 ft | 550 kts | 52° |
| 2026-05-07 09:35 | 38.45254 | -2.20390 | 39990 ft | 552 kts | 51° |
| 2026-05-07 09:36 | 38.50030 | -2.12705 | 39985 ft | 552 kts | 52° |
| 2026-05-07 09:36 | 38.54745 | -2.04963 | 39983 ft | 552 kts | 51° |
| 2026-05-07 09:37 | 38.59503 | -1.97259 | 39987 ft | 552 kts | 52° |
| 2026-05-07 09:37 | 38.63422 | -1.90809 | 39962 ft | 552 kts | 52° |
| 2026-05-07 09:38 | 38.68169 | -1.83061 | 39987 ft | 553 kts | 52° |
| 2026-05-07 09:38 | 38.73160 | -1.75584 | 39979 ft | 554 kts | 42° |
| 2026-05-07 09:39 | 38.79219 | -1.69509 | 39989 ft | 553 kts | 34° |
| 2026-05-07 09:39 | 38.85322 | -1.63495 | 40003 ft | 554 kts | 39° |
| 2026-05-07 09:40 | 38.91321 | -1.57304 | 39994 ft | 552 kts | 36° |
| 2026-05-07 09:40 | 38.97410 | -1.51284 | 39981 ft | 554 kts | 38° |
| 2026-05-07 09:41 | 39.03426 | -1.45078 | 39985 ft | 554 kts | 37° |
| 2026-05-07 09:41 | 39.09513 | -1.38987 | 39985 ft | 554 kts | 37° |
| 2026-05-07 09:42 | 39.15541 | -1.32791 | 39997 ft | 554 kts | 37° |
| 2026-05-07 09:42 | 39.21565 | -1.26692 | 40001 ft | 554 kts | 37° |
| 2026-05-07 09:43 | 39.27599 | -1.20496 | 40001 ft | 555 kts | 38° |
| 2026-05-07 09:43 | 39.33646 | -1.14320 | 39988 ft | 554 kts | 37° |
| 2026-05-07 09:44 | 39.39697 | -1.08099 | 40001 ft | 555 kts | 38° |
| 2026-05-07 09:44 | 39.45749 | -1.01877 | 40003 ft | 555 kts | 38° |
| 2026-05-07 09:45 | 39.51793 | -0.95640 | 40002 ft | 556 kts | 38° |
| 2026-05-07 09:45 | 39.57836 | -0.89394 | 40018 ft | 556 kts | 38° |
| 2026-05-07 09:46 | 39.63868 | -0.83145 | 40001 ft | 555 kts | 38° |
| 2026-05-07 09:46 | 39.69895 | -0.76885 | 40002 ft | 555 kts | 38° |
| 2026-05-07 09:47 | 39.75947 | -0.70587 | 39991 ft | 558 kts | 38° |
| 2026-05-07 09:47 | 39.81997 | -0.64274 | 40000 ft | 557 kts | 38° |
| 2026-05-07 09:48 | 39.87987 | -0.58011 | 39996 ft | 556 kts | 38° |
| 2026-05-07 09:48 | 39.94014 | -0.51694 | 39999 ft | 556 kts | 38° |
| 2026-05-07 09:49 | 40.00040 | -0.45362 | 39996 ft | 556 kts | 38° |
| 2026-05-07 09:49 | 40.06054 | -0.39030 | 40003 ft | 555 kts | 38° |
| 2026-05-07 09:50 | 40.12067 | -0.32683 | 39984 ft | 556 kts | 38° |
| 2026-05-07 09:50 | 40.18070 | -0.26332 | 39979 ft | 556 kts | 38° |
| 2026-05-07 09:51 | 40.24080 | -0.19958 | 39976 ft | 556 kts | 38° |
| 2026-05-07 09:51 | 40.30359 | -0.14110 | 39972 ft | 553 kts | 32° |
| 2026-05-07 09:52 | 40.36790 | -0.08574 | 39979 ft | 554 kts | 33° |
| 2026-05-07 09:52 | 40.43155 | -0.02882 | 39985 ft | 554 kts | 32° |
| 2026-05-07 09:53 | 40.49579 | 0.02717 | 40008 ft | 554 kts | 32° |
| 2026-05-07 09:53 | 40.55949 | 0.08399 | 40003 ft | 553 kts | 32° |
| 2026-05-07 09:54 | 40.62303 | 0.14000 | 39993 ft | 554 kts | 32° |
| 2026-05-07 09:54 | 40.68677 | 0.19683 | 39996 ft | 553 kts | 33° |
| 2026-05-07 09:55 | 40.75057 | 0.25354 | 39997 ft | 553 kts | 33° |
| 2026-05-07 09:55 | 40.81434 | 0.31051 | 40002 ft | 553 kts | 33° |
| 2026-05-07 09:56 | 40.87808 | 0.36754 | 40000 ft | 553 kts | 33° |
| 2026-05-07 09:56 | 40.94091 | 0.42392 | 39361 ft | 532 kts | 33° |
| 2026-05-07 09:56 | 40.97110 | 0.45109 | 38705 ft | 518 kts | 33° |
| 2026-05-07 09:57 | 41.00056 | 0.47757 | 37925 ft | 506 kts | 33° |
| 2026-05-07 09:57 | 41.02942 | 0.50350 | 37142 ft | 498 kts | 33° |
| 2026-05-07 09:57 | 41.05799 | 0.52925 | 36405 ft | 496 kts | 33° |
| 2026-05-07 09:57 | 41.08660 | 0.55507 | 35695 ft | 500 kts | 33° |
| 2026-05-07 09:58 | 41.11541 | 0.58110 | 35017 ft | 503 kts | 33° |
| 2026-05-07 09:58 | 41.14439 | 0.60729 | 34370 ft | 504 kts | 33° |
| 2026-05-07 09:58 | 41.17336 | 0.63352 | 33674 ft | 504 kts | 33° |
| 2026-05-07 09:58 | 41.20237 | 0.65983 | 32922 ft | 505 kts | 33° |
| 2026-05-07 09:59 | 41.23141 | 0.68617 | 32191 ft | 506 kts | 33° |
| 2026-05-07 09:59 | 41.26016 | 0.71227 | 31439 ft | 508 kts | 34° |
| 2026-05-07 09:59 | 41.28931 | 0.73878 | 30695 ft | 508 kts | 33° |
| 2026-05-07 09:59 | 41.31845 | 0.76531 | 29933 ft | 505 kts | 33° |
| 2026-05-07 10:00 | 41.34723 | 0.79156 | 29113 ft | 498 kts | 33° |
| 2026-05-07 10:00 | 41.37560 | 0.81744 | 28289 ft | 489 kts | 33° |
| 2026-05-07 10:00 | 41.40342 | 0.84284 | 27495 ft | 481 kts | 33° |
| 2026-05-07 10:00 | 41.43080 | 0.86786 | 26714 ft | 474 kts | 33° |
| 2026-05-07 10:01 | 41.45778 | 0.89255 | 25957 ft | 467 kts | 34° |
| 2026-05-07 10:01 | 41.48436 | 0.91691 | 25224 ft | 461 kts | 34° |
| 2026-05-07 10:01 | 41.51060 | 0.94096 | 24507 ft | 454 kts | 34° |
| 2026-05-07 10:01 | 41.53647 | 0.96470 | 23805 ft | 448 kts | 34° |
| 2026-05-07 10:02 | 41.56200 | 0.98816 | 23029 ft | 442 kts | 34° |
| 2026-05-07 10:02 | 41.58709 | 1.01124 | 22221 ft | 434 kts | 34° |
| 2026-05-07 10:02 | 41.61180 | 1.03399 | 21429 ft | 428 kts | 34° |
| 2026-05-07 10:02 | 41.63615 | 1.05642 | 20660 ft | 422 kts | 34° |
| 2026-05-07 10:03 | 41.66013 | 1.07854 | 19910 ft | 416 kts | 34° |
| 2026-05-07 10:03 | 41.68259 | 1.10241 | 19119 ft | 411 kts | 46° |
| 2026-05-07 10:03 | 41.69831 | 1.13378 | 18337 ft | 403 kts | 65° |
| 2026-05-07 10:03 | 41.70640 | 1.16917 | 17497 ft | 395 kts | 79° |
| 2026-05-07 10:04 | 41.71164 | 1.20507 | 16732 ft | 391 kts | 80° |
| 2026-05-07 10:04 | 41.71663 | 1.24060 | 15990 ft | 386 kts | 80° |
| 2026-05-07 10:04 | 41.72180 | 1.27568 | 15256 ft | 382 kts | 79° |
| 2026-05-07 10:04 | 41.72699 | 1.31027 | 14529 ft | 377 kts | 79° |
| 2026-05-07 10:05 | 41.73201 | 1.34450 | 13961 ft | 369 kts | 79° |
| 2026-05-07 10:05 | 41.73742 | 1.37820 | 13558 ft | 372 kts | 73° |
| 2026-05-07 10:05 | 41.75017 | 1.40773 | 13031 ft | 367 kts | 49° |
| 2026-05-07 10:05 | 41.76980 | 1.42921 | 12572 ft | 364 kts | 29° |
| 2026-05-07 10:06 | 41.79354 | 1.44036 | 12104 ft | 361 kts | 9° |
| 2026-05-07 10:06 | 41.81836 | 1.44009 | 11636 ft | 355 kts | 349° |
| 2026-05-07 10:06 | 41.84122 | 1.42894 | 11176 ft | 345 kts | 330° |
| 2026-05-07 10:06 | 41.85909 | 1.40965 | 10741 ft | 319 kts | 311° |
| 2026-05-07 10:07 | 41.87114 | 1.38601 | 10355 ft | 297 kts | 299° |
| 2026-05-07 10:07 | 41.88094 | 1.36277 | 9990 ft | 286 kts | 299° |
| 2026-05-07 10:07 | 41.89059 | 1.34014 | 9603 ft | 276 kts | 299° |
| 2026-05-07 10:07 | 41.90014 | 1.31779 | 9239 ft | 276 kts | 299° |
| 2026-05-07 10:08 | 41.90965 | 1.29539 | 8872 ft | 277 kts | 299° |
| 2026-05-07 10:08 | 41.91916 | 1.27296 | 8509 ft | 276 kts | 299° |
| 2026-05-07 10:08 | 41.93045 | 1.25236 | 8074 ft | 276 kts | 317° |
| 2026-05-07 10:08 | 41.94712 | 1.24043 | 7975 ft | 272 kts | 341° |
| 2026-05-07 10:09 | 41.96606 | 1.23813 | 7833 ft | 275 kts | 1° |
| 2026-05-07 10:09 | 41.98551 | 1.23997 | 7686 ft | 277 kts | 3° |
| 2026-05-07 10:09 | 42.00471 | 1.24195 | 7725 ft | 281 kts | 2° |
| 2026-05-07 10:09 | 42.02432 | 1.24362 | 8010 ft | 283 kts | 1° |
| 2026-05-07 10:10 | 42.04388 | 1.24525 | 8005 ft | 280 kts | 1° |
| 2026-05-07 10:10 | 42.06334 | 1.24698 | 7997 ft | 279 kts | 1° |
| 2026-05-07 10:10 | 42.08171 | 1.24893 | 7966 ft | 247 kts | 5° |
| 2026-05-07 10:10 | 42.09737 | 1.25622 | 7958 ft | 237 kts | 22° |
| 2026-05-07 10:11 | 42.11242 | 1.26577 | 8015 ft | 237 kts | 23° |
| 2026-05-07 10:11 | 42.12751 | 1.27504 | 7892 ft | 238 kts | 22° |
| 2026-05-07 10:11 | 42.14260 | 1.28421 | 7717 ft | 237 kts | 22° |
| 2026-05-07 10:11 | 42.15754 | 1.29349 | 7513 ft | 237 kts | 22° |
| 2026-05-07 10:12 | 42.17248 | 1.30281 | 7319 ft | 236 kts | 22° |
| 2026-05-07 10:12 | 42.18734 | 1.31203 | 7119 ft | 235 kts | 22° |
| 2026-05-07 10:12 | 42.20225 | 1.32127 | 6887 ft | 241 kts | 23° |
| 2026-05-07 10:12 | 42.21744 | 1.33071 | 6424 ft | 238 kts | 24° |
| 2026-05-07 10:13 | 42.23236 | 1.34001 | 5954 ft | 234 kts | 24° |
| 2026-05-07 10:13 | 42.24710 | 1.34918 | 5484 ft | 232 kts | 24° |
| 2026-05-07 10:13 | 42.26130 | 1.35801 | 5003 ft | 209 kts | 24° |
| 2026-05-07 10:13 | 42.27351 | 1.36562 | 4618 ft | 179 kts | 24° |
| 2026-05-07 10:14 | 42.28398 | 1.37214 | 4284 ft | 154 kts | 24° |
| 2026-05-07 10:14 | 42.29329 | 1.37776 | 3975 ft | 141 kts | 21° |
| 2026-05-07 10:14 | 42.30233 | 1.38244 | 3668 ft | 138 kts | 20° |
| 2026-05-07 10:14 | 42.31119 | 1.38687 | 3303 ft | 138 kts | 20° |
| 2026-05-07 10:15 | 42.31963 | 1.39238 | 3052 ft | 130 kts | 32° |
| 2026-05-07 10:15 | 42.32725 | 1.39898 | 2874 ft | 132 kts | 35° |
| 2026-05-07 10:15 | 42.33499 | 1.40556 | 2714 ft | 132 kts | 34° |
| 2026-05-07 10:15 | 42.34221 | 1.41153 | 2635 ft | 90 kts | 31° |
| 2026-05-07 10:16 | 42.34494 | 1.41380 | 2635 ft | 26 kts | 31° |
| 2026-05-07 10:16 | 42.34595 | 1.41470 | 2635 ft | 10 kts | 58° |
| 2026-05-07 10:16 | 42.34571 | 1.41534 | 2634 ft | 8 kts | 170° |
| 2026-05-07 10:16 | 42.34536 | 1.41498 | 2634 ft | 5 kts | 231° |
| 2026-05-07 10:17 | 42.34504 | 1.41438 | 2635 ft | 16 kts | 238° |
| 2026-05-07 10:17 | 42.34417 | 1.41318 | 2635 ft | 19 kts | 215° |
| 2026-05-07 10:17 | 42.34272 | 1.41196 | 2635 ft | 30 kts | 211° |
| 2026-05-07 10:17 | 42.34094 | 1.41055 | 2635 ft | 29 kts | 210° |
| 2026-05-07 10:18 | 42.33925 | 1.40922 | 2635 ft | 27 kts | 210° |
| 2026-05-07 10:18 | 42.33808 | 1.40782 | 2634 ft | 17 kts | 234° |
| 2026-05-07 10:18 | 42.33766 | 1.40700 | 2635 ft | 9 kts | 234° |
| 2026-05-07 10:18 | 42.33731 | 1.40635 | 2636 ft | 7 kts | 239° |
| 2026-05-07 10:19 | 42.33734 | 1.40586 | 2635 ft | 4 kts | 289° |
| 2026-05-07 10:19 | 42.33736 | 1.40551 | 2634 ft | 4 kts | 262° |
| 2026-05-07 10:19 | 42.33733 | 1.40519 | 2634 ft | 0 kts | 263° |